Skip Navigation Links
NOAA logo - Click to go to the NOAA homepage
NOAA's National Weather Service
Alaska Aviation Weather Unit
  NWS logo - Click to go to the NWS homepage
Left Navbar Graphic     02 AKDT = 10 GMT

   
NOAA is celebrating 200 years of science, service, and stewardship. Visit the NOAA 200th celebration Web site to learn more.
USA.gov is the U.S. Government's official Web portal to all Federal, state and local government Web resources and services.
Facebook
NWS on Facebook

AAWU Home :: Display TAF Add Bookmark
TAF PABI 251627Z 2516/2620 17006KT 9999 FEW020 FEW150
      QNH2981INS TXM08/2603Z TNM26/2517Z
      LAST NO AMDS AFT 2516
      NEXT 2714=
METAR PABI 270453Z 24005KT 10SM FEW120 M11/M19 A2974=

METAR PABI 270553Z AUTO 25008KT 10SM CLR M11/M19 A2973=

METAR PABI 270653Z AUTO 18004KT 10SM CLR M16/M21 A2972=

METAR PABI 270753Z AUTO 18005KT 10SM CLR M18/M22 A2972=

METAR PABI 270853Z AUTO 17004KT 10SM CLR M17/M22 A2971=

METAR PABI 270953Z AUTO 19005KT 10SM CLR M19/M23 A2970=


NOAA's National Weather Service
Alaska Aviation Weather Unit
6930 Sand Lake Road
Anchorage, AK 99502-1845
Disclaimer
Credits
Glossary
Privacy Policy
About Us
Career Opportunities
Contact AAWU Internet Services Site last modified: April, 17th 2012